sensor_id;sensor_type;location;lat;lon;timestamp;temperature;humidity
9828;DHT22;4953;48.952;9.442;2022-08-21T04:01:31;15.50;99.90
9828;DHT22;4953;48.952;9.442;2022-08-21T04:03:58;15.50;99.90
9828;DHT22;4953;48.952;9.442;2022-08-21T04:06:25;15.50;99.90
9828;DHT22;4953;48.952;9.442;2022-08-21T04:08:53;15.50;99.90
9828;DHT22;4953;48.952;9.442;2022-08-21T04:11:20;15.50;99.90
9828;DHT22;4953;48.952;9.442;2022-08-21T04:13:47;15.50;99.90
9828;DHT22;4953;48.952;9.442;2022-08-21T04:16:14;15.40;99.90
9828;DHT22;4953;48.952;9.442;2022-08-21T04:18:42;15.40;99.90
9828;DHT22;4953;48.952;9.442;2022-08-21T04:21:10;15.40;99.90
9828;DHT22;4953;48.952;9.442;2022-08-21T04:23:38;15.40;99.90
9828;DHT22;4953;48.952;9.442;2022-08-21T04:26:04;15.40;99.90
9828;DHT22;4953;48.952;9.442;2022-08-21T04:28:32;15.40;99.90
9828;DHT22;4953;48.952;9.442;2022-08-21T04:30:59;15.30;99.90
9828;DHT22;4953;48.952;9.442;2022-08-21T04:33:26;15.30;99.90
9828;DHT22;4953;48.952;9.442;2022-08-21T04:35:54;15.30;99.90
9828;DHT22;4953;48.952;9.442;2022-08-21T04:38:21;15.30;99.90
9828;DHT22;4953;48.952;9.442;2022-08-21T04:40:48;15.30;99.90
9828;DHT22;4953;48.952;9.442;2022-08-21T04:43:17;15.30;99.90
9828;DHT22;4953;48.952;9.442;2022-08-21T04:45:46;15.30;99.90
9828;DHT22;4953;48.952;9.442;2022-08-21T04:48:16;15.30;99.90
9828;DHT22;4953;48.952;9.442;2022-08-21T04:50:47;15.20;99.90
9828;DHT22;4953;48.952;9.442;2022-08-21T04:53:19;15.20;99.90
9828;DHT22;4953;48.952;9.442;2022-08-21T04:55:47;15.20;99.90
9828;DHT22;4953;48.952;9.442;2022-08-21T04:58:17;15.20;99.90
9828;DHT22;4953;48.952;9.442;2022-08-21T05:00:46;15.20;99.90
9828;DHT22;4953;48.952;9.442;2022-08-21T05:03:15;15.20;99.90
9828;DHT22;4953;48.952;9.442;2022-08-21T05:05:43;15.10;99.90
9828;DHT22;4953;48.952;9.442;2022-08-21T05:08:12;15.10;99.90
9828;DHT22;4953;48.952;9.442;2022-08-21T05:10:42;15.10;99.90
9828;DHT22;4953;48.952;9.442;2022-08-21T05:13:10;15.10;99.90
9828;DHT22;4953;48.952;9.442;2022-08-21T05:15:38;15.10;99.90
9828;DHT22;4953;48.952;9.442;2022-08-21T05:18:05;15.10;99.90
9828;DHT22;4953;48.952;9.442;2022-08-21T05:20:32;15.10;99.90
9828;DHT22;4953;48.952;9.442;2022-08-21T05:23:00;15.10;99.90
9828;DHT22;4953;48.952;9.442;2022-08-21T05:25:27;15.10;99.90
9828;DHT22;4953;48.952;9.442;2022-08-21T05:27:55;15.10;99.90
9828;DHT22;4953;48.952;9.442;2022-08-21T05:30:22;15.10;99.90
9828;DHT22;4953;48.952;9.442;2022-08-21T05:32:49;15.10;99.90
9828;DHT22;4953;48.952;9.442;2022-08-21T05:35:17;15.10;99.90
9828;DHT22;4953;48.952;9.442;2022-08-21T05:37:43;15.10;99.90
9828;DHT22;4953;48.952;9.442;2022-08-21T05:40:11;15.10;99.90
9828;DHT22;4953;48.952;9.442;2022-08-21T05:42:39;15.20;99.90
9828;DHT22;4953;48.952;9.442;2022-08-21T05:45:08;15.10;99.90
9828;DHT22;4953;48.952;9.442;2022-08-21T05:47:35;15.10;99.90
9828;DHT22;4953;48.952;9.442;2022-08-21T05:50:02;15.10;99.90
9828;DHT22;4953;48.952;9.442;2022-08-21T05:52:29;15.20;99.90
9828;DHT22;4953;48.952;9.442;2022-08-21T05:54:56;15.20;99.90
9828;DHT22;4953;48.952;9.442;2022-08-21T05:57:23;15.20;99.90
9828;DHT22;4953;48.952;9.442;2022-08-21T05:59:51;15.20;99.90
9828;DHT22;4953;48.952;9.442;2022-08-21T06:02:20;15.20;99.90
9828;DHT22;4953;48.952;9.442;2022-08-21T06:04:48;15.20;99.90
9828;DHT22;4953;48.952;9.442;2022-08-21T06:07:15;15.30;99.90
9828;DHT22;4953;48.952;9.442;2022-08-21T06:09:42;15.30;99.90
9828;DHT22;4953;48.952;9.442;2022-08-21T06:12:11;15.30;99.90
9828;DHT22;4953;48.952;9.442;2022-08-21T06:14:40;15.40;99.90
9828;DHT22;4953;48.952;9.442;2022-08-21T06:17:09;15.40;99.90
9828;DHT22;4953;48.952;9.442;2022-08-21T06:19:38;15.40;99.90
9828;DHT22;4953;48.952;9.442;2022-08-21T06:22:05;15.40;99.90
9828;DHT22;4953;48.952;9.442;2022-08-21T06:24:32;15.40;99.90
9828;DHT22;4953;48.952;9.442;2022-08-21T06:27:04;15.40;99.90
9828;DHT22;4953;48.952;9.442;2022-08-21T06:29:31;15.40;99.90
9828;DHT22;4953;48.952;9.442;2022-08-21T06:31:58;15.50;99.90
9828;DHT22;4953;48.952;9.442;2022-08-21T06:34:25;15.50;99.90
9828;DHT22;4953;48.952;9.442;2022-08-21T06:36:53;15.50;99.90
9828;DHT22;4953;48.952;9.442;2022-08-21T06:39:21;15.60;99.90
9828;DHT22;4953;48.952;9.442;2022-08-21T06:41:48;15.60;99.90
9828;DHT22;4953;48.952;9.442;2022-08-21T06:44:16;15.60;99.90
9828;DHT22;4953;48.952;9.442;2022-08-21T06:46:43;15.60;99.90
9828;DHT22;4953;48.952;9.442;2022-08-21T06:49:10;15.70;99.90
9828;DHT22;4953;48.952;9.442;2022-08-21T06:51:38;15.70;99.90
9828;DHT22;4953;48.952;9.442;2022-08-21T06:54:06;15.70;99.90
9828;DHT22;4953;48.952;9.442;2022-08-21T06:56:34;15.80;99.90
9828;DHT22;4953;48.952;9.442;2022-08-21T06:59:03;15.80;99.90
9828;DHT22;4953;48.952;9.442;2022-08-21T07:01:30;15.80;99.90
9828;DHT22;4953;48.952;9.442;2022-08-21T07:03:58;15.90;99.90
9828;DHT22;4953;48.952;9.442;2022-08-21T07:06:24;15.90;99.90
9828;DHT22;4953;48.952;9.442;2022-08-21T07:08:51;16.00;99.90
9828;DHT22;4953;48.952;9.442;2022-08-21T07:11:22;16.10;99.90
9828;DHT22;4953;48.952;9.442;2022-08-21T07:13:50;16.10;99.90
9828;DHT22;4953;48.952;9.442;2022-08-21T07:16:18;16.20;99.90
9828;DHT22;4953;48.952;9.442;2022-08-21T07:18:45;16.30;99.90
9828;DHT22;4953;48.952;9.442;2022-08-21T07:21:12;16.40;99.90
9828;DHT22;4953;48.952;9.442;2022-08-21T07:23:40;16.40;99.90
9828;DHT22;4953;48.952;9.442;2022-08-21T07:26:08;16.40;99.90
9828;DHT22;4953;48.952;9.442;2022-08-21T07:28:36;16.40;99.90
9828;DHT22;4953;48.952;9.442;2022-08-21T07:31:04;16.50;99.90
9828;DHT22;4953;48.952;9.442;2022-08-21T07:33:33;16.60;99.90
9828;DHT22;4953;48.952;9.442;2022-08-21T07:36:00;16.60;99.90
9828;DHT22;4953;48.952;9.442;2022-08-21T07:38:27;16.70;99.90
9828;DHT22;4953;48.952;9.442;2022-08-21T07:40:55;16.70;99.90
9828;DHT22;4953;48.952;9.442;2022-08-21T07:43:24;16.80;99.90
9828;DHT22;4953;48.952;9.442;2022-08-21T07:45:52;16.90;99.90
9828;DHT22;4953;48.952;9.442;2022-08-21T07:48:20;16.90;99.90
9828;DHT22;4953;48.952;9.442;2022-08-21T07:50:47;17.10;99.90
9828;DHT22;4953;48.952;9.442;2022-08-21T07:53:15;17.20;99.90
9828;DHT22;4953;48.952;9.442;2022-08-21T07:55:42;17.20;99.90
9828;DHT22;4953;48.952;9.442;2022-08-21T07:58:09;17.20;99.90
9828;DHT22;4953;48.952;9.442;2022-08-21T08:00:36;17.30;99.90
9828;DHT22;4953;48.952;9.442;2022-08-21T08:03:04;17.30;99.90
9828;DHT22;4953;48.952;9.442;2022-08-21T08:05:31;17.40;99.90
9828;DHT22;4953;48.952;9.442;2022-08-21T08:08:00;17.50;99.90
9828;DHT22;4953;48.952;9.442;2022-08-21T08:10:27;17.50;99.90
9828;DHT22;4953;48.952;9.442;2022-08-21T08:12:54;17.70;99.90
9828;DHT22;4953;48.952;9.442;2022-08-21T08:15:23;17.80;99.90
9828;DHT22;4953;48.952;9.442;2022-08-21T08:17:50;17.90;99.90
9828;DHT22;4953;48.952;9.442;2022-08-21T08:20:19;18.00;99.90
9828;DHT22;4953;48.952;9.442;2022-08-21T08:22:47;18.20;99.90
9828;DHT22;4953;48.952;9.442;2022-08-21T08:25:14;18.40;99.90
9828;DHT22;4953;48.952;9.442;2022-08-21T08:27:42;18.50;99.90
9828;DHT22;4953;48.952;9.442;2022-08-21T08:30:11;18.50;99.90
9828;DHT22;4953;48.952;9.442;2022-08-21T08:32:39;18.60;99.90
9828;DHT22;4953;48.952;9.442;2022-08-21T08:35:07;18.80;99.90
9828;DHT22;4953;48.952;9.442;2022-08-21T08:37:35;18.80;99.90
9828;DHT22;4953;48.952;9.442;2022-08-21T08:40:07;19.00;99.90
9828;DHT22;4953;48.952;9.442;2022-08-21T08:42:36;19.00;99.90
9828;DHT22;4953;48.952;9.442;2022-08-21T08:45:06;19.20;99.90
9828;DHT22;4953;48.952;9.442;2022-08-21T08:47:37;19.40;99.90
9828;DHT22;4953;48.952;9.442;2022-08-21T08:50:07;19.50;99.90
9828;DHT22;4953;48.952;9.442;2022-08-21T08:52:42;19.60;99.90
9828;DHT22;4953;48.952;9.442;2022-08-21T08:55:13;19.80;99.90
9828;DHT22;4953;48.952;9.442;2022-08-21T08:57:45;20.10;99.90
9828;DHT22;4953;48.952;9.442;2022-08-21T09:00:15;20.50;99.90
9828;DHT22;4953;48.952;9.442;2022-08-21T09:02:43;20.60;99.90
9828;DHT22;4953;48.952;9.442;2022-08-21T09:05:19;21.00;99.90
9828;DHT22;4953;48.952;9.442;2022-08-21T09:07:58;21.10;99.90
9828;DHT22;4953;48.952;9.442;2022-08-21T09:10:36;21.60;99.90
9828;DHT22;4953;48.952;9.442;2022-08-21T09:13:10;21.60;99.90
9828;DHT22;4953;48.952;9.442;2022-08-21T09:15:48;21.70;99.90
9828;DHT22;4953;48.952;9.442;2022-08-21T09:18:27;22.20;99.90
9828;DHT22;4953;48.952;9.442;2022-08-21T09:21:06;22.30;99.90
9828;DHT22;4953;48.952;9.442;2022-08-21T09:23:44;22.30;99.90
9828;DHT22;4953;48.952;9.442;2022-08-21T09:26:15;22.30;99.90
9828;DHT22;4953;48.952;9.442;2022-08-21T09:28:44;22.40;99.90
9828;DHT22;4953;48.952;9.442;2022-08-21T09:31:20;22.50;99.90
9828;DHT22;4953;48.952;9.442;2022-08-21T09:33:48;22.60;99.90
9828;DHT22;4953;48.952;9.442;2022-08-21T09:36:24;22.70;99.90
9828;DHT22;4953;48.952;9.442;2022-08-21T09:38:54;22.80;99.90
9828;DHT22;4953;48.952;9.442;2022-08-21T09:41:26;22.90;99.90
9828;DHT22;4953;48.952;9.442;2022-08-21T09:43:53;23.10;99.90
9828;DHT22;4953;48.952;9.442;2022-08-21T09:46:22;23.20;99.90
9828;DHT22;4953;48.952;9.442;2022-08-21T09:48:51;23.70;99.90
9828;DHT22;4953;48.952;9.442;2022-08-21T09:51:20;23.70;99.90
9828;DHT22;4953;48.952;9.442;2022-08-21T09:53:49;23.80;99.90
9828;DHT22;4953;48.952;9.442;2022-08-21T09:56:25;23.90;99.90
9828;DHT22;4953;48.952;9.442;2022-08-21T09:59:15;24.10;99.90
9828;DHT22;4953;48.952;9.442;2022-08-21T10:01:44;24.20;99.90
9828;DHT22;4953;48.952;9.442;2022-08-21T10:04:11;24.30;99.90
9828;DHT22;4953;48.952;9.442;2022-08-21T10:06:38;24.40;99.90
9828;DHT22;4953;48.952;9.442;2022-08-21T10:09:08;24.50;99.90
9828;DHT22;4953;48.952;9.442;2022-08-21T10:11:36;24.70;99.90
9828;DHT22;4953;48.952;9.442;2022-08-21T10:14:13;24.90;99.90
9828;DHT22;4953;48.952;9.442;2022-08-21T10:16:49;25.10;99.90
9828;DHT22;4953;48.952;9.442;2022-08-21T10:19:25;25.20;99.90
9828;DHT22;4953;48.952;9.442;2022-08-21T10:22:00;25.20;99.90
9828;DHT22;4953;48.952;9.442;2022-08-21T10:24:30;25.40;99.90
9828;DHT22;4953;48.952;9.442;2022-08-21T10:27:06;25.50;99.90
9828;DHT22;4953;48.952;9.442;2022-08-21T10:29:45;25.60;99.90
9828;DHT22;4953;48.952;9.442;2022-08-21T10:32:24;25.80;99.90
9828;DHT22;4953;48.952;9.442;2022-08-21T10:34:58;26.30;99.90
9828;DHT22;4953;48.952;9.442;2022-08-21T10:37:31;26.30;99.90
9828;DHT22;4953;48.952;9.442;2022-08-21T10:40:12;26.30;99.90
9828;DHT22;4953;48.952;9.442;2022-08-21T10:42:52;26.30;99.90
9828;DHT22;4953;48.952;9.442;2022-08-21T10:45:40;26.30;99.90
9828;DHT22;4953;48.952;9.442;2022-08-21T10:48:19;26.20;99.90
9828;DHT22;4953;48.952;9.442;2022-08-21T10:50:51;26.20;99.90
9828;DHT22;4953;48.952;9.442;2022-08-21T10:53:32;26.20;99.90
9828;DHT22;4953;48.952;9.442;2022-08-21T10:56:12;26.30;99.90
9828;DHT22;4953;48.952;9.442;2022-08-21T10:58:47;26.40;99.90
9828;DHT22;4953;48.952;9.442;2022-08-21T11:01:19;28.00;99.90
9828;DHT22;4953;48.952;9.442;2022-08-21T11:03:53;28.20;99.90
9828;DHT22;4953;48.952;9.442;2022-08-21T11:06:24;28.10;99.90
9828;DHT22;4953;48.952;9.442;2022-08-21T11:08:53;29.40;99.90
9828;DHT22;4953;48.952;9.442;2022-08-21T11:11:26;29.10;99.90
9828;DHT22;4953;48.952;9.442;2022-08-21T11:13:58;30.30;99.90
9828;DHT22;4953;48.952;9.442;2022-08-21T11:16:33;30.10;99.90
9828;DHT22;4953;48.952;9.442;2022-08-21T11:19:09;29.70;99.90
9828;DHT22;4953;48.952;9.442;2022-08-21T11:21:41;29.30;99.90
9828;DHT22;4953;48.952;9.442;2022-08-21T11:24:19;29.00;99.90
9828;DHT22;4953;48.952;9.442;2022-08-21T11:26:52;29.10;99.90
9828;DHT22;4953;48.952;9.442;2022-08-21T11:29:26;29.30;99.90
9828;DHT22;4953;48.952;9.442;2022-08-21T11:32:07;29.50;99.90
9828;DHT22;4953;48.952;9.442;2022-08-21T11:34:44;29.80;99.90
9828;DHT22;4953;48.952;9.442;2022-08-21T11:37:22;29.60;99.90
9828;DHT22;4953;48.952;9.442;2022-08-21T11:39:54;29.60;99.90
9828;DHT22;4953;48.952;9.442;2022-08-21T11:42:30;29.50;99.90
9828;DHT22;4953;48.952;9.442;2022-08-21T11:45:12;29.50;99.90
9828;DHT22;4953;48.952;9.442;2022-08-21T11:47:53;29.50;99.90
9828;DHT22;4953;48.952;9.442;2022-08-21T11:50:24;29.20;99.90
9828;DHT22;4953;48.952;9.442;2022-08-21T11:52:56;29.10;99.90
9828;DHT22;4953;48.952;9.442;2022-08-21T11:55:29;29.10;99.90
9828;DHT22;4953;48.952;9.442;2022-08-21T11:58:01;29.20;99.90
9828;DHT22;4953;48.952;9.442;2022-08-21T12:00:34;29.20;99.90
9828;DHT22;4953;48.952;9.442;2022-08-21T12:03:08;29.30;99.90
9828;DHT22;4953;48.952;9.442;2022-08-21T12:05:39;29.30;99.90
9828;DHT22;4953;48.952;9.442;2022-08-21T12:08:12;29.40;99.90
9828;DHT22;4953;48.952;9.442;2022-08-21T12:10:42;29.40;99.90
9828;DHT22;4953;48.952;9.442;2022-08-21T12:13:25;29.50;99.90
9828;DHT22;4953;48.952;9.442;2022-08-21T12:16:05;29.50;99.90
9828;DHT22;4953;48.952;9.442;2022-08-21T12:18:32;29.30;99.90
9828;DHT22;4953;48.952;9.442;2022-08-21T12:21:15;29.30;99.90
9828;DHT22;4953;48.952;9.442;2022-08-21T12:23:46;29.30;99.90
9828;DHT22;4953;48.952;9.442;2022-08-21T12:26:32;29.40;99.90
9828;DHT22;4953;48.952;9.442;2022-08-21T12:29:05;29.60;99.90
9828;DHT22;4953;48.952;9.442;2022-08-21T12:31:35;29.50;99.10
9828;DHT22;4953;48.952;9.442;2022-08-21T12:34:04;29.50;99.90
9828;DHT22;4953;48.952;9.442;2022-08-21T12:36:41;29.40;99.90
9828;DHT22;4953;48.952;9.442;2022-08-21T12:39:14;29.40;99.90
9828;DHT22;4953;48.952;9.442;2022-08-21T12:41:47;29.40;99.90
9828;DHT22;4953;48.952;9.442;2022-08-21T12:44:21;29.30;99.90
9828;DHT22;4953;48.952;9.442;2022-08-21T12:46:55;29.20;99.90
9828;DHT22;4953;48.952;9.442;2022-08-21T12:49:27;29.20;99.90
9828;DHT22;4953;48.952;9.442;2022-08-21T12:52:01;29.20;99.90
9828;DHT22;4953;48.952;9.442;2022-08-21T12:54:31;29.30;99.90
9828;DHT22;4953;48.952;9.442;2022-08-21T12:56:59;29.30;99.90
9828;DHT22;4953;48.952;9.442;2022-08-21T12:59:27;29.30;99.40
9828;DHT22;4953;48.952;9.442;2022-08-21T13:01:57;29.30;99.90
9828;DHT22;4953;48.952;9.442;2022-08-21T13:04:32;29.30;99.80
9828;DHT22;4953;48.952;9.442;2022-08-21T13:07:00;29.30;99.70
9828;DHT22;4953;48.952;9.442;2022-08-21T13:09:29;29.20;99.50
9828;DHT22;4953;48.952;9.442;2022-08-21T13:11:57;29.00;96.90
9828;DHT22;4953;48.952;9.442;2022-08-21T13:14:29;28.90;97.00
9828;DHT22;4953;48.952;9.442;2022-08-21T13:16:59;28.90;97.60
9828;DHT22;4953;48.952;9.442;2022-08-21T13:19:27;28.90;95.90
9828;DHT22;4953;48.952;9.442;2022-08-21T13:21:55;28.90;94.60
9828;DHT22;4953;48.952;9.442;2022-08-21T13:24:24;28.90;96.50
9828;DHT22;4953;48.952;9.442;2022-08-21T13:26:52;28.90;95.10
9828;DHT22;4953;48.952;9.442;2022-08-21T13:29:21;29.10;96.40
9828;DHT22;4953;48.952;9.442;2022-08-21T13:31:51;29.10;95.20
9828;DHT22;4953;48.952;9.442;2022-08-21T13:34:28;29.20;95.60
9828;DHT22;4953;48.952;9.442;2022-08-21T13:36:57;29.30;94.70
9828;DHT22;4953;48.952;9.442;2022-08-21T13:39:25;29.30;94.70
9828;DHT22;4953;48.952;9.442;2022-08-21T13:41:55;29.20;95.80
9828;DHT22;4953;48.952;9.442;2022-08-21T13:44:32;29.10;96.10
9828;DHT22;4953;48.952;9.442;2022-08-21T13:47:02;29.20;96.40
9828;DHT22;4953;48.952;9.442;2022-08-21T13:49:33;29.10;96.10
9828;DHT22;4953;48.952;9.442;2022-08-21T13:52:01;29.10;98.50
9828;DHT22;4953;48.952;9.442;2022-08-21T13:54:35;29.30;97.00
9828;DHT22;4953;48.952;9.442;2022-08-21T13:57:03;29.40;98.30
9828;DHT22;4953;48.952;9.442;2022-08-21T13:59:32;29.40;94.80
9828;DHT22;4953;48.952;9.442;2022-08-21T14:02:00;29.40;95.90
9828;DHT22;4953;48.952;9.442;2022-08-21T14:04:34;29.50;94.90
9828;DHT22;4953;48.952;9.442;2022-08-21T14:07:02;29.60;92.90
9828;DHT22;4953;48.952;9.442;2022-08-21T14:09:42;29.50;94.10
9828;DHT22;4953;48.952;9.442;2022-08-21T14:12:14;29.50;93.60
9828;DHT22;4953;48.952;9.442;2022-08-21T14:14:43;29.50;92.00
9828;DHT22;4953;48.952;9.442;2022-08-21T14:17:13;29.30;93.90
9828;DHT22;4953;48.952;9.442;2022-08-21T14:19:44;29.40;95.40
9828;DHT22;4953;48.952;9.442;2022-08-21T14:22:27;29.50;92.80
9828;DHT22;4953;48.952;9.442;2022-08-21T14:25:00;29.50;91.00
9828;DHT22;4953;48.952;9.442;2022-08-21T14:27:29;29.60;92.30
9828;DHT22;4953;48.952;9.442;2022-08-21T14:30:03;29.60;91.50
9828;DHT22;4953;48.952;9.442;2022-08-21T14:32:37;29.60;91.60
9828;DHT22;4953;48.952;9.442;2022-08-21T14:35:06;29.60;91.30
9828;DHT22;4953;48.952;9.442;2022-08-21T14:37:33;29.60;91.30
9828;DHT22;4953;48.952;9.442;2022-08-21T14:40:00;29.70;91.80
9828;DHT22;4953;48.952;9.442;2022-08-21T14:42:28;29.60;91.10
9828;DHT22;4953;48.952;9.442;2022-08-21T14:45:00;29.50;90.70
9828;DHT22;4953;48.952;9.442;2022-08-21T14:47:27;29.30;90.20
9828;DHT22;4953;48.952;9.442;2022-08-21T14:49:54;29.30;91.90
9828;DHT22;4953;48.952;9.442;2022-08-21T14:52:23;29.40;91.70
9828;DHT22;4953;48.952;9.442;2022-08-21T14:54:49;29.40;91.70
9828;DHT22;4953;48.952;9.442;2022-08-21T14:57:16;29.50;91.20
9828;DHT22;4953;48.952;9.442;2022-08-21T14:59:44;29.50;90.50
9828;DHT22;4953;48.952;9.442;2022-08-21T15:02:13;29.60;90.70
9828;DHT22;4953;48.952;9.442;2022-08-21T15:04:39;29.60;88.60
9828;DHT22;4953;48.952;9.442;2022-08-21T15:07:10;29.70;87.50
9828;DHT22;4953;48.952;9.442;2022-08-21T15:09:40;29.70;90.00
9828;DHT22;4953;48.952;9.442;2022-08-21T15:12:07;29.70;89.90
9828;DHT22;4953;48.952;9.442;2022-08-21T15:14:38;29.70;88.60
9828;DHT22;4953;48.952;9.442;2022-08-21T15:17:06;29.80;86.80
9828;DHT22;4953;48.952;9.442;2022-08-21T15:19:33;29.80;90.10
9828;DHT22;4953;48.952;9.442;2022-08-21T15:22:00;29.80;85.30
9828;DHT22;4953;48.952;9.442;2022-08-21T15:24:27;29.80;84.80
9828;DHT22;4953;48.952;9.442;2022-08-21T15:26:56;29.80;86.20
9828;DHT22;4953;48.952;9.442;2022-08-21T15:29:25;29.90;88.70
9828;DHT22;4953;48.952;9.442;2022-08-21T15:31:55;30.00;85.20
9828;DHT22;4953;48.952;9.442;2022-08-21T15:34:22;29.90;84.70
9828;DHT22;4953;48.952;9.442;2022-08-21T15:36:52;30.00;84.40
9828;DHT22;4953;48.952;9.442;2022-08-21T15:39:19;29.90;86.40
9828;DHT22;4953;48.952;9.442;2022-08-21T15:41:46;29.90;83.70
9828;DHT22;4953;48.952;9.442;2022-08-21T15:44:15;29.90;81.50
9828;DHT22;4953;48.952;9.442;2022-08-21T15:46:42;29.90;80.10
9828;DHT22;4953;48.952;9.442;2022-08-21T15:49:10;29.80;83.70
9828;DHT22;4953;48.952;9.442;2022-08-21T15:51:37;29.80;83.60
9828;DHT22;4953;48.952;9.442;2022-08-21T15:54:04;29.80;85.10
9828;DHT22;4953;48.952;9.442;2022-08-21T15:56:35;29.90;83.30
9828;DHT22;4953;48.952;9.442;2022-08-21T15:59:05;30.00;85.00
9828;DHT22;4953;48.952;9.442;2022-08-21T16:01:35;30.00;84.20
9828;DHT22;4953;48.952;9.442;2022-08-21T16:04:04;30.00;85.60
9828;DHT22;4953;48.952;9.442;2022-08-21T16:06:30;30.00;85.10
9828;DHT22;4953;48.952;9.442;2022-08-21T16:08:58;29.90;85.00
9828;DHT22;4953;48.952;9.442;2022-08-21T16:11:26;30.00;86.20
9828;DHT22;4953;48.952;9.442;2022-08-21T16:13:54;30.00;84.20
9828;DHT22;4953;48.952;9.442;2022-08-21T16:16:22;30.00;84.00
9828;DHT22;4953;48.952;9.442;2022-08-21T16:18:52;29.90;82.50
9828;DHT22;4953;48.952;9.442;2022-08-21T16:21:19;29.90;84.60
9828;DHT22;4953;48.952;9.442;2022-08-21T16:23:46;29.90;86.80
9828;DHT22;4953;48.952;9.442;2022-08-21T16:26:13;29.90;84.30
9828;DHT22;4953;48.952;9.442;2022-08-21T16:28:42;29.90;85.00
9828;DHT22;4953;48.952;9.442;2022-08-21T16:31:11;29.90;88.10
9828;DHT22;4953;48.952;9.442;2022-08-21T16:33:41;29.90;85.50
9828;DHT22;4953;48.952;9.442;2022-08-21T16:36:11;29.80;85.50
9828;DHT22;4953;48.952;9.442;2022-08-21T16:38:39;29.80;85.30
9828;DHT22;4953;48.952;9.442;2022-08-21T16:41:11;29.70;83.80
9828;DHT22;4953;48.952;9.442;2022-08-21T16:43:39;29.60;83.70
9828;DHT22;4953;48.952;9.442;2022-08-21T16:46:08;29.60;82.70
9828;DHT22;4953;48.952;9.442;2022-08-21T16:48:35;29.50;88.30
9828;DHT22;4953;48.952;9.442;2022-08-21T16:51:03;29.50;87.70
9828;DHT22;4953;48.952;9.442;2022-08-21T16:53:31;29.30;84.30
9828;DHT22;4953;48.952;9.442;2022-08-21T16:55:58;29.20;85.20
9828;DHT22;4953;48.952;9.442;2022-08-21T16:58:28;29.10;88.30
9828;DHT22;4953;48.952;9.442;2022-08-21T17:00:56;29.00;88.10
9828;DHT22;4953;48.952;9.442;2022-08-21T17:03:28;29.00;90.30
9828;DHT22;4953;48.952;9.442;2022-08-21T17:05:56;28.90;86.70
9828;DHT22;4953;48.952;9.442;2022-08-21T17:08:23;28.80;84.20
9828;DHT22;4953;48.952;9.442;2022-08-21T17:10:52;28.80;85.30
9828;DHT22;4953;48.952;9.442;2022-08-21T17:13:19;28.60;85.80
9828;DHT22;4953;48.952;9.442;2022-08-21T17:15:46;28.60;88.50
9828;DHT22;4953;48.952;9.442;2022-08-21T17:18:15;28.50;86.50
9828;DHT22;4953;48.952;9.442;2022-08-21T17:20:43;28.40;88.40
9828;DHT22;4953;48.952;9.442;2022-08-21T17:23:10;28.30;86.10
9828;DHT22;4953;48.952;9.442;2022-08-21T17:25:38;28.30;89.10
9828;DHT22;4953;48.952;9.442;2022-08-21T17:28:07;28.20;86.50
9828;DHT22;4953;48.952;9.442;2022-08-21T17:30:34;28.10;89.90
9828;DHT22;4953;48.952;9.442;2022-08-21T17:33:02;28.10;91.00
9828;DHT22;4953;48.952;9.442;2022-08-21T17:35:29;28.00;90.20
9828;DHT22;4953;48.952;9.442;2022-08-21T17:37:56;27.90;93.60
9828;DHT22;4953;48.952;9.442;2022-08-21T17:40:23;27.80;94.60
9828;DHT22;4953;48.952;9.442;2022-08-21T17:42:50;27.80;95.40
9828;DHT22;4953;48.952;9.442;2022-08-21T17:45:19;27.70;99.10
9828;DHT22;4953;48.952;9.442;2022-08-21T17:47:46;27.60;97.30
9828;DHT22;4953;48.952;9.442;2022-08-21T17:50:14;27.60;99.00
9828;DHT22;4953;48.952;9.442;2022-08-21T17:52:41;27.50;98.80
9828;DHT22;4953;48.952;9.442;2022-08-21T17:55:09;27.50;99.90
9828;DHT22;4953;48.952;9.442;2022-08-21T17:57:36;27.40;99.90
9828;DHT22;4953;48.952;9.442;2022-08-21T18:00:06;27.30;99.90
9828;DHT22;4953;48.952;9.442;2022-08-21T18:02:35;27.20;99.90
9828;DHT22;4953;48.952;9.442;2022-08-21T18:05:02;27.00;99.90
9828;DHT22;4953;48.952;9.442;2022-08-21T18:07:29;26.90;99.90
9828;DHT22;4953;48.952;9.442;2022-08-21T18:09:56;26.80;99.90
9828;DHT22;4953;48.952;9.442;2022-08-21T18:12:24;26.80;99.90
9828;DHT22;4953;48.952;9.442;2022-08-21T18:14:51;26.60;99.90
9828;DHT22;4953;48.952;9.442;2022-08-21T18:17:20;26.50;99.90
9828;DHT22;4953;48.952;9.442;2022-08-21T18:19:49;26.40;99.90
9828;DHT22;4953;48.952;9.442;2022-08-21T18:22:16;26.30;99.90
9828;DHT22;4953;48.952;9.442;2022-08-21T18:24:43;26.20;99.90
9828;DHT22;4953;48.952;9.442;2022-08-21T18:27:12;26.10;99.90
9828;DHT22;4953;48.952;9.442;2022-08-21T18:29:39;26.00;99.90
9828;DHT22;4953;48.952;9.442;2022-08-21T18:32:07;25.90;99.90
9828;DHT22;4953;48.952;9.442;2022-08-21T18:34:36;25.80;99.90
9828;DHT22;4953;48.952;9.442;2022-08-21T18:37:05;25.70;99.90
9828;DHT22;4953;48.952;9.442;2022-08-21T18:39:33;25.60;99.90
9828;DHT22;4953;48.952;9.442;2022-08-21T18:42:03;25.50;99.90
9828;DHT22;4953;48.952;9.442;2022-08-21T18:44:31;25.40;99.90
9828;DHT22;4953;48.952;9.442;2022-08-21T18:47:00;25.30;99.90
9828;DHT22;4953;48.952;9.442;2022-08-21T18:49:27;25.20;99.90
9828;DHT22;4953;48.952;9.442;2022-08-21T18:51:54;25.10;99.90
9828;DHT22;4953;48.952;9.442;2022-08-21T18:54:22;25.00;99.90
9828;DHT22;4953;48.952;9.442;2022-08-21T18:56:51;24.90;99.90
9828;DHT22;4953;48.952;9.442;2022-08-21T18:59:18;24.80;99.90
9828;DHT22;4953;48.952;9.442;2022-08-21T19:01:45;24.80;99.90
9828;DHT22;4953;48.952;9.442;2022-08-21T19:04:12;24.70;99.90
9828;DHT22;4953;48.952;9.442;2022-08-21T19:06:39;24.60;99.90
9828;DHT22;4953;48.952;9.442;2022-08-21T19:09:07;24.60;99.90
9828;DHT22;4953;48.952;9.442;2022-08-21T19:11:38;24.60;99.90
9828;DHT22;4953;48.952;9.442;2022-08-21T19:14:08;24.60;99.90
9828;DHT22;4953;48.952;9.442;2022-08-21T19:16:38;24.40;99.90
9828;DHT22;4953;48.952;9.442;2022-08-21T19:19:06;24.40;99.90
9828;DHT22;4953;48.952;9.442;2022-08-21T19:21:34;24.20;99.90
9828;DHT22;4953;48.952;9.442;2022-08-21T19:24:02;24.10;99.90
9828;DHT22;4953;48.952;9.442;2022-08-21T19:26:30;24.10;99.90
9828;DHT22;4953;48.952;9.442;2022-08-21T19:29:01;24.00;99.90
9828;DHT22;4953;48.952;9.442;2022-08-21T19:31:32;23.90;99.90
9828;DHT22;4953;48.952;9.442;2022-08-21T19:34:02;23.80;99.90
9828;DHT22;4953;48.952;9.442;2022-08-21T19:36:30;23.70;99.90
9828;DHT22;4953;48.952;9.442;2022-08-21T19:38:58;23.60;99.90
9828;DHT22;4953;48.952;9.442;2022-08-21T19:41:27;23.50;99.90
9828;DHT22;4953;48.952;9.442;2022-08-21T19:44:00;23.40;99.90
9828;DHT22;4953;48.952;9.442;2022-08-21T19:46:29;23.40;99.90
9828;DHT22;4953;48.952;9.442;2022-08-21T19:48:57;23.30;99.90
9828;DHT22;4953;48.952;9.442;2022-08-21T19:51:24;23.20;99.90
9828;DHT22;4953;48.952;9.442;2022-08-21T19:53:52;23.20;99.90
9828;DHT22;4953;48.952;9.442;2022-08-21T19:56:22;23.10;99.90
9828;DHT22;4953;48.952;9.442;2022-08-21T19:58:50;23.00;99.90
9828;DHT22;4953;48.952;9.442;2022-08-21T20:01:20;22.90;99.90
9828;DHT22;4953;48.952;9.442;2022-08-21T20:03:48;22.80;99.90
9828;DHT22;4953;48.952;9.442;2022-08-21T20:06:15;22.80;99.90
9828;DHT22;4953;48.952;9.442;2022-08-21T20:08:43;22.70;99.90
9828;DHT22;4953;48.952;9.442;2022-08-21T20:11:10;22.70;99.90
9828;DHT22;4953;48.952;9.442;2022-08-21T20:13:38;22.60;99.90
9828;DHT22;4953;48.952;9.442;2022-08-21T20:16:07;22.50;99.90
9828;DHT22;4953;48.952;9.442;2022-08-21T20:18:37;22.40;99.90